Terminal Aerodrome Forecast
Issued by NWS Cleveland, OH

Home | Current Version | Previous Version | Text Only | Print | Product List | Glossary On
Versions: 1 2 3 4 5 6 7 8 9 10 11 12 13 14 15 16 17
455
FTUS41 KCLE 251126
TAFERI
TAF
KERI 251126Z 2512/2612 VRB03KT 3SM -RA BR OVC015
      TEMPO 2512/2515 2SM -DZ BR
     FM251800 31006KT P6SM VCSH OVC010
     FM260000 30012KT P6SM BKN015
     FM260300 30011KT P6SM BKN025
     FM261000 28008KT P6SM BKN045=

USA.gov is the U.S. government's official web portal to all federal, state and local government web resources and services.